^^
Saratoga-Weather Station Historical Data
Daily Summary for July 29, 2020 Units:  Metric    English   Both
Daily Weekly Monthly Yearly Custom
  High: Low: Average:
Temperature: 12.9 °C 9.1 °C 11.1 °C
Dew Point: 11.7 °C 7.9 °C 9.6 °C
Humidity: 94% 82% 90%
Wind Speed: 22.7km/h 0km/h 5km/h
Wind Gust: 27.4km/h - -
Wind- - West
Pressure: 1020.7 hPa 1011.5 hPa -
Precipitation: 12.4 mm    
Historical Graphs
 
 
Tabular Data for July 29, 2020
Time Temperature Dew Point Pressure Wind Wind Speed Wind Gust Humidity Rainfall Rate (Hourly) solar
00:01 11.8 °C 9.7 °C 1011.9 hPa WSW 7.9 km/h 14.5 km/h 87% 0.2 mm 0 W/m2
00:06 11.8 °C 9.9 °C 1011.9 hPa NNW 6.4 km/h 6.4 km/h 88% 0.2 mm 0 W/m2
00:11 11.7 °C 9.8 °C 1011.9 hPa WNW 11.1 km/h 14.5 km/h 88% 0.2 mm 0 W/m2
00:16 11.7 °C 9.8 °C 1011.9 hPa Calm   9.7 km/h 88% 0.2 mm 0 W/m2
00:21 11.7 °C 9.8 °C 1011.9 hPa WSW 4.7 km/h 17.7 km/h 88% 0.2 mm 0 W/m2
00:26 11.7 °C 9.8 °C 1011.9 hPa WNW 6.4 km/h 8 km/h 88% 0.2 mm 0 W/m2
00:31 11.7 °C 9.8 °C 1011.9 hPa SW 11.1 km/h 19.3 km/h 88% 0.2 mm 0 W/m2
00:36 11.7 °C 9.6 °C 1011.9 hPa WNW 6.4 km/h 19.3 km/h 87% 0.2 mm 0 W/m2
00:41 11.8 °C 9.5 °C 1011.5 hPa NW 7.9 km/h 14.5 km/h 86% 0.2 mm 0 W/m2
00:46 11.8 °C 9.4 °C 1011.9 hPa NW 14.3 km/h 19.3 km/h 85% 0.2 mm 0 W/m2
00:51 11.9 °C 9.5 °C 1011.9 hPa NNW 4.7 km/h 12.9 km/h 85% 0.2 mm 0 W/m2
00:56 11.9 °C 9.5 °C 1011.9 hPa West 4.7 km/h 12.9 km/h 85% 0.2 mm 0 W/m2
01:01 11.9 °C 9.5 °C 1012.2 hPa NNW 6.4 km/h 14.5 km/h 85% 0.0 mm 0 W/m2
01:06 11.9 °C 9.5 °C 1012.2 hPa South 3.2 km/h 12.9 km/h 85% 0.0 mm 0 W/m2
01:11 11.9 °C 9.5 °C 1012.2 hPa NE 4.7 km/h 14.5 km/h 85% 0.0 mm 0 W/m2
01:16 11.9 °C 9.5 °C 1012.2 hPa WNW 11.1 km/h 24.1 km/h 85% 0.0 mm 0 W/m2
01:21 11.9 °C 9.5 °C 1012.2 hPa NW 7.9 km/h 8 km/h 85% 0.0 mm 0 W/m2
01:26 11.9 °C 9.3 °C 1012.2 hPa WSW 6.4 km/h 17.7 km/h 84% 0.0 mm 0 W/m2
01:31 11.9 °C 9.3 °C 1012.2 hPa SW 11.1 km/h 24.1 km/h 84% 0.0 mm 0 W/m2
01:36 12.1 °C 9.3 °C 1012.2 hPa NW 13 km/h 14.5 km/h 83% 0.0 mm 0 W/m2
01:41 12.1 °C 9.3 °C 1012.2 hPa WNW 11.1 km/h 22.5 km/h 83% 0.0 mm 0 W/m2
01:47 12.1 °C 9.1 °C 1012.2 hPa NNW 6.4 km/h 6.4 km/h 82% 0.0 mm 0 W/m2
01:52 12.2 °C 9.2 °C 1012.2 hPa WNW 6.4 km/h 14.5 km/h 82% 0.0 mm 0 W/m2
01:57 12.1 °C 9.1 °C 1012.2 hPa North 7.9 km/h 17.7 km/h 82% 0.0 mm 0 W/m2
02:02 12.2 °C 9.2 °C 1012.2 hPa West 14.3 km/h 24.1 km/h 82% 0.0 mm 0 W/m2
02:07 12.2 °C 9.2 °C 1012.2 hPa WSW 7.9 km/h 17.7 km/h 82% 0.0 mm 0 W/m2
02:12 12.1 °C 9.1 °C 1012.2 hPa WNW 9.7 km/h 24.1 km/h 82% 0.0 mm 0 W/m2
02:17 12 °C 9.2 °C 1012.5 hPa West 9.7 km/h 22.5 km/h 83% 0.0 mm 0 W/m2
02:22 11.9 °C 9.3 °C 1012.9 hPa WNW 3.2 km/h 24.1 km/h 84% 0.0 mm 0 W/m2
02:27 11.8 °C 9.2 °C 1012.9 hPa WNW 4.7 km/h 16.1 km/h 84% 0.2 mm 0 W/m2
02:32 11.6 °C 9.3 °C 1012.5 hPa West 4.7 km/h 16.1 km/h 86% 0.5 mm 0 W/m2
02:37 11.4 °C 9.3 °C 1012.9 hPa North 3.2 km/h 16.1 km/h 87% 0.5 mm 0 W/m2
02:42 11.3 °C 9.4 °C 1012.9 hPa West 9.7 km/h 9.7 km/h 88% 0.8 mm 0 W/m2
02:47 11.2 °C 9.5 °C 1013.2 hPa WSW 11.1 km/h 20.9 km/h 89% 0.8 mm 0 W/m2
02:52 10.6 °C 8.5 °C 1013.2 hPa West 16.3 km/h 25.7 km/h 87% 3.3 mm 0 W/m2
02:57 10.2 °C 8.3 °C 1012.9 hPa WNW 13 km/h 20.9 km/h 88% 3.6 mm 0 W/m2
03:02 10 °C 8.4 °C 1012.9 hPa West 9.7 km/h 17.7 km/h 90% 4.1 mm 0 W/m2
03:07 9.9 °C 8.3 °C 1013.2 hPa West 6.4 km/h 16.1 km/h 90% 5.1 mm 0 W/m2
03:12 9.8 °C 8.4 °C 1013.2 hPa West 11.1 km/h 22.5 km/h 91% 6.1 mm 0 W/m2
03:17 9.7 °C 8.3 °C 1013.2 hPa WNW 13 km/h 16.1 km/h 91% 6.3 mm 0 W/m2
03:22 9.6 °C 8.4 °C 1013.2 hPa NNW 22.7 km/h 22.5 km/h 92% 6.9 mm 0 W/m2
03:27 9.6 °C 8.4 °C 1013.2 hPa West 13 km/h 27.4 km/h 92% 7.1 mm 0 W/m2
03:32 9.6 °C 8.2 °C 1013.2 hPa West 9.7 km/h 17.7 km/h 91% 7.6 mm 0 W/m2
03:37 9.4 °C 8 °C 1013.5 hPa NW 14.3 km/h 27.4 km/h 91% 7.6 mm 0 W/m2
03:42 9.3 °C 8.1 °C 1013.2 hPa WNW 16.3 km/h 24.1 km/h 92% 7.9 mm 0 W/m2
03:47 9.2 °C 8 °C 1013.5 hPa West 6.4 km/h 17.7 km/h 92% 7.9 mm 0 W/m2
03:52 9.2 °C 8 °C 1013.2 hPa NNW 6.4 km/h 24.1 km/h 92% 5.8 mm 0 W/m2
03:57 9.1 °C 7.9 °C 1013.2 hPa WSW 13 km/h 27.4 km/h 92% 5.6 mm 0 W/m2
04:02 9.2 °C 8 °C 1013.2 hPa WNW 3.2 km/h 16.1 km/h 92% 5.1 mm 0 W/m2
04:07 9.2 °C 8 °C 1013.2 hPa WNW 6.4 km/h 24.1 km/h 92% 4.3 mm 0 W/m2
04:12 9.2 °C 8 °C 1013.2 hPa SSW 6.4 km/h 17.7 km/h 92% 3.8 mm 0 W/m2
04:17 9.1 °C 7.9 °C 1013.2 hPa West 3.2 km/h 22.5 km/h 92% 3.3 mm 0 W/m2
04:22 9.1 °C 7.9 °C 1013.2 hPa West 3.2 km/h 6.4 km/h 92% 3.3 mm 0 W/m2
04:27 9.1 °C 7.9 °C 1013.2 hPa WNW 4.7 km/h 11.3 km/h 92% 2.5 mm 0 W/m2
04:32 9.1 °C 7.9 °C 1013.2 hPa West 17.7 km/h 17.7 km/h 92% 2.3 mm 0 W/m2
04:37 9.1 °C 7.9 °C 1013.2 hPa SSW 4.7 km/h 14.5 km/h 92% 2.0 mm 0 W/m2
04:42 9.1 °C 7.9 °C 1013.2 hPa NW 3.2 km/h 16.1 km/h 92% 1.5 mm 0 W/m2
04:47 9.1 °C 7.9 °C 1013.5 hPa West 6.4 km/h 17.7 km/h 92% 1.5 mm 0 W/m2
04:52 9.1 °C 7.9 °C 1013.5 hPa SW 11.1 km/h 14.5 km/h 92% 1.3 mm 0 W/m2
04:57 9.1 °C 7.9 °C 1013.5 hPa West 3.2 km/h 14.5 km/h 92% 1.0 mm 0 W/m2
05:02 9.1 °C 7.9 °C 1013.9 hPa WSW 6.4 km/h 17.7 km/h 92% 1.0 mm 0 W/m2
05:07 9.2 °C 8 °C 1013.9 hPa NW 3.2 km/h 12.9 km/h 92% 0.8 mm 0 W/m2
05:12 9.1 °C 7.9 °C 1013.9 hPa NW 6.4 km/h 6.4 km/h 92% 0.5 mm 0 W/m2
05:17 9.1 °C 7.9 °C 1014.2 hPa NNE 4.7 km/h 12.9 km/h 92% 0.5 mm 0 W/m2
05:22 9.1 °C 7.9 °C 1014.2 hPa NNW 3.2 km/h 6.4 km/h 92% 0.2 mm 0 W/m2
05:27 9.2 °C 8 °C 1014.2 hPa WNW 3.2 km/h 11.3 km/h 92% 0.2 mm 0 W/m2
05:33 9.2 °C 8 °C 1014.6 hPa WNW 7.9 km/h 19.3 km/h 92% 0.0 mm 0 W/m2
05:38 9.2 °C 8 °C 1014.6 hPa West 17.7 km/h 17.7 km/h 92% 0.0 mm 0 W/m2
05:43 9.3 °C 8.1 °C 1014.6 hPa WNW 3.2 km/h 19.3 km/h 92% 0.0 mm 0 W/m2
05:48 9.3 °C 8.1 °C 1014.9 hPa WNW 4.7 km/h 11.3 km/h 92% 0.0 mm 0 W/m2
05:53 9.3 °C 7.9 °C 1014.9 hPa WNW 3.2 km/h 12.9 km/h 91% 0.0 mm 0 W/m2
05:58 9.3 °C 7.9 °C 1014.9 hPa WNW 6.4 km/h 14.5 km/h 91% 0.0 mm 0 W/m2
06:03 9.3 °C 7.9 °C 1014.9 hPa WSW 4.7 km/h 6.4 km/h 91% 0.0 mm 0 W/m2
06:08 9.3 °C 7.9 °C 1015.2 hPa West 4.7 km/h 6.4 km/h 91% 0.0 mm 0 W/m2
06:13 9.3 °C 7.9 °C 1015.2 hPa WSW 11.1 km/h 12.9 km/h 91% 0.0 mm 0 W/m2
06:18 9.3 °C 8.1 °C 1015.2 hPa SW 6.4 km/h 12.9 km/h 92% 0.0 mm 0 W/m2
06:23 9.3 °C 8.1 °C 1015.2 hPa West 4.7 km/h 12.9 km/h 92% 0.0 mm 0 W/m2
06:28 9.4 °C 8.2 °C 1015.6 hPa WSW 4.7 km/h 12.9 km/h 92% 0.0 mm 0 W/m2
06:33 9.4 °C 8.2 °C 1015.6 hPa WNW 6.4 km/h 11.3 km/h 92% 0.0 mm 0 W/m2
06:38 9.5 °C 8.3 °C 1015.6 hPa West 3.2 km/h 12.9 km/h 92% 0.0 mm 0 W/m2
06:43 9.5 °C 8.3 °C 1015.6 hPa West 4.7 km/h 14.5 km/h 92% 0.0 mm 0 W/m2
06:48 9.5 °C 8.3 °C 1015.6 hPa West 4.7 km/h 11.3 km/h 92% 0.0 mm 0 W/m2
06:53 9.4 °C 8.2 °C 1015.6 hPa WNW 4.7 km/h 16.1 km/h 92% 0.0 mm 0 W/m2
06:58 9.4 °C 8.2 °C 1015.9 hPa WNW 3.2 km/h 6.4 km/h 92% 0.0 mm 0 W/m2
07:03 9.4 °C 8.2 °C 1015.9 hPa WNW 13 km/h 17.7 km/h 92% 0.0 mm 0 W/m2
07:08 9.5 °C 8.3 °C 1016.3 hPa WSW 4.7 km/h 8 km/h 92% 0.0 mm 0 W/m2
07:13 9.5 °C 8.3 °C 1016.3 hPa WNW 4.7 km/h 17.7 km/h 92% 0.0 mm 0 W/m2
07:18 9.6 °C 8.4 °C 1016.3 hPa NW 3.2 km/h 11.3 km/h 92% 0.0 mm 0 W/m2
07:23 9.6 °C 8.2 °C 1016.6 hPa West 4.7 km/h 9.7 km/h 91% 0.0 mm 5 W/m2
07:28 9.6 °C 8.2 °C 1016.6 hPa West 11.1 km/h 11.3 km/h 91% 0.0 mm 9 W/m2
07:33 9.7 °C 8.3 °C 1016.9 hPa WNW 4.7 km/h 16.1 km/h 91% 0.0 mm 11 W/m2
07:38 9.7 °C 8.3 °C 1016.9 hPa WNW 4.7 km/h 14.5 km/h 91% 0.0 mm 14 W/m2
07:43 9.7 °C 8.3 °C 1016.9 hPa WSW 7.9 km/h 17.7 km/h 91% 0.0 mm 21 W/m2
07:48 9.7 °C 8.3 °C 1016.9 hPa West 4.7 km/h 12.9 km/h 91% 0.0 mm 23 W/m2
07:53 9.7 °C 8.3 °C 1016.9 hPa WNW 4.7 km/h 17.7 km/h 91% 0.0 mm 25 W/m2
07:58 9.7 °C 8.3 °C 1016.9 hPa WSW 6.4 km/h 12.9 km/h 91% 0.0 mm 16 W/m2
08:03 9.8 °C 8.4 °C 1016.9 hPa NW 4.7 km/h 8 km/h 91% 0.0 mm 14 W/m2
08:08 9.8 °C 8.4 °C 1017.3 hPa WNW 3.2 km/h 3.2 km/h 91% 0.0 mm 21 W/m2
08:13 9.8 °C 8.4 °C 1017.3 hPa WNW 4.7 km/h 14.5 km/h 91% 0.0 mm 28 W/m2
08:18 9.8 °C 8.4 °C 1017.3 hPa WNW 11.1 km/h 16.1 km/h 91% 0.0 mm 28 W/m2
08:23 9.8 °C 8.4 °C 1017.6 hPa NNW 1.4 km/h 17.7 km/h 91% 0.0 mm 30 W/m2
08:28 9.9 °C 8.5 °C 1017.6 hPa NNW 6.4 km/h 9.7 km/h 91% 0.0 mm 33 W/m2
08:33 9.9 °C 8.5 °C 1018.0 hPa WSW 11.1 km/h 22.5 km/h 91% 0.0 mm 44 W/m2
08:38 9.9 °C 8.5 °C 1017.6 hPa WNW 11.1 km/h 12.9 km/h 91% 0.0 mm 47 W/m2
08:43 9.9 °C 8.5 °C 1018.0 hPa NNW 4.7 km/h 20.9 km/h 91% 0.0 mm 53 W/m2
08:48 9.9 °C 8.5 °C 1018.0 hPa WNW 11.1 km/h 11.3 km/h 91% 0.0 mm 53 W/m2
08:53 10 °C 8.6 °C 1018.0 hPa West 4.7 km/h 11.3 km/h 91% 0.0 mm 58 W/m2
08:58 10.1 °C 8.7 °C 1018.0 hPa WNW 3.2 km/h 11.3 km/h 91% 0.0 mm 49 W/m2
09:03 10.1 °C 8.7 °C 1018.3 hPa Calm   6.4 km/h 91% 0.0 mm 51 W/m2
09:08 10.1 °C 8.7 °C 1018.3 hPa West 3.2 km/h 6.4 km/h 91% 0.0 mm 49 W/m2
09:13 10.2 °C 8.8 °C 1018.3 hPa WSW 4.7 km/h 16.1 km/h 91% 0.0 mm 56 W/m2
09:18 10.2 °C 8.8 °C 1018.3 hPa WNW 3.2 km/h 9.7 km/h 91% 0.0 mm 56 W/m2
09:23 10.3 °C 8.9 °C 1018.3 hPa Calm   16.1 km/h 91% 0.0 mm 65 W/m2
09:28 10.3 °C 8.9 °C 1018.3 hPa West 11.1 km/h 14.5 km/h 91% 0.0 mm 79 W/m2
09:33 10.4 °C 8.8 °C 1018.3 hPa North 3.2 km/h 16.1 km/h 90% 0.0 mm 69 W/m2
09:38 10.4 °C 8.8 °C 1018.6 hPa West 3.2 km/h 11.3 km/h 90% 0.0 mm 67 W/m2
09:43 10.5 °C 8.9 °C 1018.6 hPa West 3.2 km/h 8 km/h 90% 0.0 mm 53 W/m2
09:48 10.5 °C 8.9 °C 1018.6 hPa West 3.2 km/h 4.8 km/h 90% 0.0 mm 70 W/m2
09:53 10.6 °C 9 °C 1018.6 hPa WNW 6.4 km/h 6.4 km/h 90% 0.0 mm 69 W/m2
09:58 10.6 °C 9 °C 1019.0 hPa WNW 3.2 km/h 14.5 km/h 90% 0.0 mm 69 W/m2
10:03 10.7 °C 9.1 °C 1019.0 hPa WSW 3.2 km/h 11.3 km/h 90% 0.0 mm 70 W/m2
10:08 10.7 °C 9.1 °C 1019.0 hPa West 4.7 km/h 14.5 km/h 90% 0.0 mm 65 W/m2
10:13 10.8 °C 9.2 °C 1019.0 hPa West 9.7 km/h 11.3 km/h 90% 0.0 mm 72 W/m2
10:18 10.8 °C 9.2 °C 1019.0 hPa WNW 3.2 km/h 11.3 km/h 90% 0.0 mm 81 W/m2
10:23 10.9 °C 9.3 °C 1019.0 hPa East 3.2 km/h 6.4 km/h 90% 0.0 mm 128 W/m2
10:28 11 °C 9.3 °C 1019.0 hPa NW 6.4 km/h 16.1 km/h 89% 0.0 mm 135 W/m2
10:33 11.1 °C 9.4 °C 1019.0 hPa WNW 3.2 km/h 12.9 km/h 89% 0.0 mm 100 W/m2
10:38 11.2 °C 9.3 °C 1019.3 hPa WSW 3.2 km/h 11.3 km/h 88% 0.0 mm 97 W/m2
10:43 11.2 °C 9.3 °C 1019.3 hPa NNW 4.7 km/h 9.7 km/h 88% 0.0 mm 134 W/m2
10:48 11.3 °C 9.4 °C 1019.3 hPa WSW 7.9 km/h 9.7 km/h 88% 0.0 mm 139 W/m2
10:53 11.3 °C 9.4 °C 1019.3 hPa West 4.7 km/h 9.7 km/h 88% 0.0 mm 137 W/m2
10:58 11.4 °C 9.5 °C 1019.3 hPa WNW 7.9 km/h 11.3 km/h 88% 0.0 mm 137 W/m2
11:03 11.5 °C 9.4 °C 1019.6 hPa SW 7.9 km/h 12.9 km/h 87% 0.0 mm 141 W/m2
11:08 11.6 °C 9.5 °C 1019.6 hPa SW 3.2 km/h 16.1 km/h 87% 0.0 mm 113 W/m2
11:13 11.6 °C 9.3 °C 1019.6 hPa WSW 6.4 km/h 12.9 km/h 86% 0.0 mm 137 W/m2
11:18 11.7 °C 9.4 °C 1019.6 hPa NNW 4.7 km/h 17.7 km/h 86% 0.0 mm 146 W/m2
11:23 11.7 °C 9.4 °C 1019.6 hPa West 3.2 km/h 9.7 km/h 86% 0.0 mm 105 W/m2
11:28 11.7 °C 9.3 °C 1019.6 hPa WNW 4.7 km/h 16.1 km/h 85% 0.0 mm 158 W/m2
11:33 11.8 °C 9.5 °C 1019.6 hPa West 1.4 km/h 9.7 km/h 86% 0.0 mm 197 W/m2
11:38 11.9 °C 9.5 °C 1019.6 hPa NW 7.9 km/h 12.9 km/h 85% 0.0 mm 185 W/m2
11:43 12 °C 9.6 °C 1019.6 hPa WNW 4.7 km/h 11.3 km/h 85% 0.0 mm 193 W/m2
11:48 12.1 °C 9.7 °C 1019.6 hPa NW 4.7 km/h 11.3 km/h 85% 0.0 mm 104 W/m2
11:53 12.1 °C 9.7 °C 1019.6 hPa West 3.2 km/h 8 km/h 85% 0.0 mm 72 W/m2
11:58 12 °C 9.6 °C 1019.6 hPa WSW 1.4 km/h 6.4 km/h 85% 0.0 mm 84 W/m2
12:03 11.9 °C 9.6 °C 1019.6 hPa NNW 4.7 km/h 6.4 km/h 86% 0.0 mm 83 W/m2
12:08 11.9 °C 9.6 °C 1019.6 hPa SSE 4.7 km/h 9.7 km/h 86% 0.0 mm 134 W/m2
12:13 11.9 °C 9.6 °C 1019.6 hPa WNW 6.4 km/h 9.7 km/h 86% 0.0 mm 162 W/m2
12:18 11.9 °C 9.6 °C 1019.6 hPa NNW 1.4 km/h 3.2 km/h 86% 0.0 mm 151 W/m2
12:23 12 °C 9.7 °C 1019.6 hPa WNW 13 km/h 12.9 km/h 86% 0.0 mm 176 W/m2
12:28 12.1 °C 9.7 °C 1019.6 hPa WSW 1.4 km/h 4.8 km/h 85% 0.0 mm 183 W/m2
12:33 12.1 °C 9.5 °C 1019.3 hPa NW 3.2 km/h 6.4 km/h 84% 0.0 mm 213 W/m2
12:38 12.2 °C 9.6 °C 1019.6 hPa West 11.1 km/h 14.5 km/h 84% 0.0 mm 158 W/m2
12:43 12.2 °C 9.8 °C 1019.6 hPa WNW 7.9 km/h 27.4 km/h 85% 0.0 mm 167 W/m2
12:48 12 °C 9.7 °C 1019.6 hPa West 9.7 km/h 11.3 km/h 86% 0.0 mm 165 W/m2
12:53 11.8 °C 9.7 °C 1019.6 hPa West 4.7 km/h 4.8 km/h 87% 0.0 mm 160 W/m2
12:58 11.7 °C 9.8 °C 1019.6 hPa West 3.2 km/h 6.4 km/h 88% 0.0 mm 204 W/m2
13:03 11.7 °C 9.9 °C 1019.6 hPa NW 3.2 km/h 6.4 km/h 89% 0.0 mm 181 W/m2
13:08 11.7 °C 9.9 °C 1019.6 hPa WNW 3.2 km/h 11.3 km/h 89% 0.0 mm 181 W/m2
13:13 11.8 °C 10.2 °C 1019.3 hPa Calm   4.8 km/h 90% 0.0 mm 192 W/m2
13:18 11.8 °C 10 °C 1019.3 hPa WNW 1.4 km/h 11.3 km/h 89% 0.0 mm 253 W/m2
13:23 11.9 °C 10 °C 1019.3 hPa WNW 1.4 km/h 11.3 km/h 88% 0.0 mm 167 W/m2
13:28 12.1 °C 10.3 °C 1019.3 hPa NNW 4.7 km/h 9.7 km/h 89% 0.0 mm 156 W/m2
13:33 12.2 °C 10.3 °C 1019.3 hPa NNW 1.4 km/h 6.4 km/h 88% 0.0 mm 186 W/m2
13:38 12.3 °C 10.4 °C 1019.3 hPa ESE 4.7 km/h 4.8 km/h 88% 0.0 mm 149 W/m2
13:44 12.4 °C 10.3 °C 1019.0 hPa NW 3.2 km/h 16.1 km/h 87% 0.0 mm 230 W/m2
13:49 12.5 °C 10.4 °C 1019.3 hPa NW 1.4 km/h 6.4 km/h 87% 0.0 mm 223 W/m2
13:54 12.7 °C 10.4 °C 1019.3 hPa WSW 6.4 km/h 14.5 km/h 86% 0.0 mm 237 W/m2
13:59 12.8 °C 10.5 °C 1019.6 hPa West 13 km/h 14.5 km/h 86% 0.0 mm 163 W/m2
14:04 12.8 °C 10.3 °C 1019.6 hPa NW 3.2 km/h 14.5 km/h 85% 0.0 mm 132 W/m2
14:09 12.8 °C 10.3 °C 1019.6 hPa West 6.4 km/h 17.7 km/h 85% 0.0 mm 163 W/m2
14:14 12.9 °C 10.3 °C 1019.3 hPa WNW 3.2 km/h 9.7 km/h 84% 0.0 mm 149 W/m2
14:19 12.9 °C 10.3 °C 1019.6 hPa WNW 14.3 km/h 14.5 km/h 84% 0.0 mm 86 W/m2
14:24 12.9 °C 10.1 °C 1019.6 hPa West 11.1 km/h 12.9 km/h 83% 0.0 mm 69 W/m2
14:29 12.9 °C 10.1 °C 1019.6 hPa West 4.7 km/h 9.7 km/h 83% 0.0 mm 95 W/m2
14:34 12.8 °C 10 °C 1019.6 hPa NNE 6.4 km/h 22.5 km/h 83% 0.0 mm 95 W/m2
14:39 12.8 °C 10 °C 1019.6 hPa WNW 6.4 km/h 16.1 km/h 83% 0.0 mm 127 W/m2
14:44 12.8 °C 10 °C 1019.6 hPa WNW 6.4 km/h 22.5 km/h 83% 0.0 mm 134 W/m2
14:49 12.8 °C 10 °C 1020.0 hPa West 13 km/h 12.9 km/h 83% 0.0 mm 128 W/m2
14:54 12.8 °C 10 °C 1020.0 hPa West 17.7 km/h 22.5 km/h 83% 0.0 mm 97 W/m2
14:59 12.8 °C 10 °C 1019.6 hPa WSW 3.2 km/h 6.4 km/h 83% 0.0 mm 100 W/m2
15:04 12.8 °C 10 °C 1019.6 hPa WSW 4.7 km/h 14.5 km/h 83% 0.0 mm 118 W/m2
15:09 12.8 °C 10.2 °C 1019.6 hPa WNW 4.7 km/h 4.8 km/h 84% 0.0 mm 114 W/m2
15:14 12.8 °C 10.2 °C 1019.6 hPa West 1.4 km/h 14.5 km/h 84% 0.0 mm 70 W/m2
15:19 12.7 °C 10.2 °C 1019.6 hPa West 1.4 km/h 9.7 km/h 85% 0.0 mm 39 W/m2
15:24 12.4 °C 10.1 °C 1020.0 hPa WNW 4.7 km/h 14.5 km/h 86% 0.2 mm 28 W/m2
15:29 12.1 °C 10.2 °C 1020.0 hPa Calm   6.4 km/h 88% 0.5 mm 51 W/m2
15:34 11.9 °C 10.3 °C 1020.0 hPa West 1.4 km/h 14.5 km/h 90% 0.5 mm 42 W/m2
15:39 11.8 °C 10.2 °C 1020.0 hPa WSW 4.7 km/h 12.9 km/h 90% 0.5 mm 46 W/m2
15:44 11.7 °C 10.3 °C 1020.0 hPa WNW 4.7 km/h 11.3 km/h 91% 0.5 mm 54 W/m2
15:49 11.4 °C 10 °C 1020.3 hPa NNW 13 km/h 17.7 km/h 91% 0.8 mm 49 W/m2
15:54 11.3 °C 9.9 °C 1020.3 hPa WSW 4.7 km/h 16.1 km/h 91% 0.8 mm 69 W/m2
15:59 11.3 °C 10 °C 1020.3 hPa WSW 7.9 km/h 17.7 km/h 92% 0.8 mm 77 W/m2
16:04 11.3 °C 10 °C 1020.3 hPa WSW 3.2 km/h 3.2 km/h 92% 0.8 mm 67 W/m2
16:09 11.3 °C 10 °C 1020.0 hPa Calm   1.6 km/h 92% 0.8 mm 77 W/m2
16:14 11.3 °C 10.2 °C 1020.0 hPa NW 1.4 km/h 3.2 km/h 93% 0.8 mm 76 W/m2
16:19 11.4 °C 10.3 °C 1020.0 hPa SSW 1.4 km/h 3.2 km/h 93% 0.8 mm 56 W/m2
16:24 11.4 °C 10.3 °C 1020.0 hPa WNW 4.7 km/h 6.4 km/h 93% 0.5 mm 44 W/m2
16:29 11.4 °C 10.3 °C 1020.0 hPa WNW 3.2 km/h 3.2 km/h 93% 0.5 mm 46 W/m2
16:34 11.5 °C 10.2 °C 1020.0 hPa Calm   4.8 km/h 92% 0.5 mm 47 W/m2
16:39 11.5 °C 10.2 °C 1020.0 hPa Calm   3.2 km/h 92% 0.2 mm 30 W/m2
16:44 11.6 °C 10.3 °C 1020.0 hPa Calm   1.6 km/h 92% 0.2 mm 26 W/m2
16:49 11.6 °C 10.3 °C 1020.0 hPa NE 3.2 km/h 3.2 km/h 92% 0.0 mm 19 W/m2
16:54 11.6 °C 10.3 °C 1020.0 hPa NE 1.4 km/h 3.2 km/h 92% 0.0 mm 18 W/m2
16:59 11.6 °C 10.3 °C 1020.0 hPa Calm   4.8 km/h 92% 0.0 mm 14 W/m2
17:04 11.5 °C 10.2 °C 1020.0 hPa Calm   3.2 km/h 92% 0.0 mm 14 W/m2
17:09 11.5 °C 10.2 °C 1020.0 hPa Calm   3.2 km/h 92% 0.0 mm 9 W/m2
17:14 11.5 °C 10.2 °C 1019.6 hPa Calm   3.2 km/h 92% 0.0 mm 5 W/m2
17:19 11.5 °C 10.2 °C 1019.6 hPa ESE 1.4 km/h 3.2 km/h 92% 0.0 mm 0 W/m2
17:24 11.5 °C 10.4 °C 1019.6 hPa Calm     93% 0.0 mm 0 W/m2
17:29 11.4 °C 10.1 °C 1020.0 hPa Calm   1.6 km/h 92% 0.0 mm 0 W/m2
17:34 11.4 °C 10.3 °C 1020.0 hPa Calm   3.2 km/h 93% 0.0 mm 0 W/m2
17:39 11.4 °C 10.3 °C 1019.6 hPa SSE 1.4 km/h 3.2 km/h 93% 0.0 mm 0 W/m2
17:44 11.3 °C 10.2 °C 1020.0 hPa Calm   3.2 km/h 93% 0.2 mm 0 W/m2
17:49 11.3 °C 10.2 °C 1020.0 hPa Calm   3.2 km/h 93% 0.2 mm 0 W/m2
17:54 11.3 °C 10.2 °C 1020.0 hPa NE 1.4 km/h 3.2 km/h 93% 0.2 mm 0 W/m2
17:59 11.3 °C 10.2 °C 1020.0 hPa Calm   3.2 km/h 93% 0.2 mm 0 W/m2
18:04 11.3 °C 10.2 °C 1020.3 hPa Calm   3.2 km/h 93% 0.2 mm 0 W/m2
18:09 11.3 °C 10.2 °C 1020.3 hPa NW 1.4 km/h 6.4 km/h 93% 0.2 mm 0 W/m2
18:14 11.3 °C 10.2 °C 1020.3 hPa Calm   4.8 km/h 93% 0.2 mm 0 W/m2
18:19 11.4 °C 10.3 °C 1020.3 hPa ESE 1.4 km/h 3.2 km/h 93% 0.5 mm 0 W/m2
18:24 11.4 °C 10.3 °C 1020.3 hPa Calm   1.6 km/h 93% 0.5 mm 0 W/m2
18:29 11.4 °C 10.3 °C 1020.3 hPa East 3.2 km/h 4.8 km/h 93% 0.5 mm 0 W/m2
18:34 11.3 °C 10.2 °C 1020.3 hPa Calm   1.6 km/h 93% 0.5 mm 0 W/m2
18:39 11.4 °C 10.3 °C 1020.3 hPa NE 1.4 km/h 3.2 km/h 93% 0.8 mm 0 W/m2
18:44 11.3 °C 10.2 °C 1020.3 hPa ESE 1.4 km/h 6.4 km/h 93% 0.5 mm 0 W/m2
18:49 11.3 °C 10.2 °C 1020.3 hPa North 1.4 km/h 3.2 km/h 93% 0.5 mm 0 W/m2
18:54 11.3 °C 10.4 °C 1020.0 hPa East 1.4 km/h 1.6 km/h 94% 0.8 mm 0 W/m2
18:59 11.3 °C 10.4 °C 1020.0 hPa Calm   4.8 km/h 94% 1.0 mm 0 W/m2
19:04 11.3 °C 10.4 °C 1020.3 hPa Calm   4.8 km/h 94% 1.0 mm 0 W/m2
19:09 11.4 °C 10.5 °C 1020.3 hPa West 1.4 km/h 6.4 km/h 94% 1.0 mm 0 W/m2
19:14 11.4 °C 10.5 °C 1020.3 hPa SW 3.2 km/h 9.7 km/h 94% 1.0 mm 0 W/m2
19:19 11.4 °C 10.5 °C 1020.3 hPa North 3.2 km/h 4.8 km/h 94% 0.8 mm 0 W/m2
19:24 11.4 °C 10.5 °C 1020.0 hPa North 1.4 km/h 6.4 km/h 94% 0.8 mm 0 W/m2
19:29 11.4 °C 10.5 °C 1020.0 hPa NNW 4.7 km/h 6.4 km/h 94% 0.5 mm 0 W/m2
19:34 11.4 °C 10.3 °C 1020.0 hPa North 1.4 km/h 4.8 km/h 93% 0.5 mm 0 W/m2
19:39 11.4 °C 10.3 °C 1020.0 hPa WNW 7.9 km/h 12.9 km/h 93% 0.5 mm 0 W/m2
19:44 11.4 °C 10.3 °C 1020.0 hPa SW 3.2 km/h 3.2 km/h 93% 0.5 mm 0 W/m2
19:49 11.4 °C 10.3 °C 1020.0 hPa NW 4.7 km/h 6.4 km/h 93% 0.5 mm 0 W/m2
19:54 11.4 °C 10.5 °C 1020.0 hPa WSW 11.1 km/h 11.3 km/h 94% 0.5 mm 0 W/m2
19:59 11.4 °C 10.5 °C 1020.0 hPa Calm   4.8 km/h 94% 0.2 mm 0 W/m2
20:04 11.4 °C 10.5 °C 1020.3 hPa Calm   4.8 km/h 94% 0.2 mm 0 W/m2
20:09 11.4 °C 10.5 °C 1020.3 hPa NNW 1.4 km/h 8 km/h 94% 0.2 mm 0 W/m2
20:14 11.4 °C 10.5 °C 1020.3 hPa Calm   3.2 km/h 94% 0.2 mm 0 W/m2
20:19 11.4 °C 10.5 °C 1020.3 hPa Calm   4.8 km/h 94% 0.2 mm 0 W/m2
20:24 11.4 °C 10.5 °C 1020.0 hPa West 1.4 km/h 6.4 km/h 94% 0.2 mm 0 W/m2
20:30 11.4 °C 10.5 °C 1020.3 hPa NE 3.2 km/h 8 km/h 94% 0.2 mm 0 W/m2
20:35 11.4 °C 10.5 °C 1020.3 hPa West 1.4 km/h 1.6 km/h 94% 0.2 mm 0 W/m2
20:40 11.4 °C 10.5 °C 1020.3 hPa SW 3.2 km/h 4.8 km/h 94% 0.2 mm 0 W/m2
20:45 11.4 °C 10.5 °C 1020.3 hPa NNW 4.7 km/h 4.8 km/h 94% 0.0 mm 0 W/m2
20:50 11.4 °C 10.5 °C 1020.3 hPa Calm   4.8 km/h 94% 0.0 mm 0 W/m2
20:55 11.5 °C 10.6 °C 1020.7 hPa East 1.4 km/h 4.8 km/h 94% 0.0 mm 0 W/m2
21:00 11.5 °C 10.6 °C 1020.3 hPa ENE 3.2 km/h 3.2 km/h 94% 0.0 mm 0 W/m2
21:06 11.6 °C 10.7 °C 1020.3 hPa NW 1.4 km/h 11.3 km/h 94% 0.0 mm 0 W/m2
21:11 11.6 °C 10.7 °C 1020.7 hPa North 3.2 km/h 8 km/h 94% 0.0 mm 0 W/m2
21:16 11.6 °C 10.7 °C 1020.7 hPa WNW 3.2 km/h 4.8 km/h 94% 0.0 mm 0 W/m2
21:21 11.6 °C 10.7 °C 1020.7 hPa NNW 13 km/h 12.9 km/h 94% 0.0 mm 0 W/m2
21:26 11.7 °C 10.8 °C 1020.3 hPa Calm   14.5 km/h 94% 0.0 mm 0 W/m2
21:31 11.7 °C 10.8 °C 1020.3 hPa North 1.4 km/h 4.8 km/h 94% 0.0 mm 0 W/m2
21:36 11.7 °C 10.8 °C 1020.3 hPa NNE 1.4 km/h 14.5 km/h 94% 0.0 mm 0 W/m2
21:41 11.7 °C 10.8 °C 1020.3 hPa Calm   3.2 km/h 94% 0.0 mm 0 W/m2
21:46 11.7 °C 10.8 °C 1020.7 hPa North 4.7 km/h 8 km/h 94% 0.0 mm 0 W/m2
21:51 11.8 °C 10.9 °C 1020.7 hPa NW 11.1 km/h 11.3 km/h 94% 0.0 mm 0 W/m2
21:56 11.8 °C 10.9 °C 1020.7 hPa Calm   9.7 km/h 94% 0.0 mm 0 W/m2
22:01 11.9 °C 11 °C 1020.7 hPa NNE 4.7 km/h 6.4 km/h 94% 0.0 mm 0 W/m2
22:06 11.9 °C 11 °C 1020.7 hPa West 4.7 km/h 9.7 km/h 94% 0.0 mm 0 W/m2
22:11 11.9 °C 11 °C 1020.7 hPa NNE 1.4 km/h 1.6 km/h 94% 0.0 mm 0 W/m2
22:16 12 °C 11.1 °C 1020.7 hPa WSW 3.2 km/h 8 km/h 94% 0.0 mm 0 W/m2
22:21 12 °C 11.1 °C 1020.3 hPa NW 6.4 km/h 17.7 km/h 94% 0.0 mm 0 W/m2
22:26 12.1 °C 11.2 °C 1020.7 hPa ESE 9.7 km/h 9.7 km/h 94% 0.0 mm 0 W/m2
22:31 12.1 °C 11.2 °C 1020.3 hPa South 4.7 km/h 14.5 km/h 94% 0.0 mm 0 W/m2
22:36 12.2 °C 11.3 °C 1020.3 hPa WNW 6.4 km/h 14.5 km/h 94% 0.0 mm 0 W/m2
22:41 12.2 °C 11.3 °C 1020.3 hPa NW 7.9 km/h 16.1 km/h 94% 0.0 mm 0 W/m2
22:46 12.2 °C 11.3 °C 1020.0 hPa Calm   8 km/h 94% 0.0 mm 0 W/m2
22:51 12.2 °C 11.3 °C 1020.3 hPa NE 3.2 km/h 16.1 km/h 94% 0.0 mm 0 W/m2
22:56 12.3 °C 11.4 °C 1020.3 hPa WNW 3.2 km/h 9.7 km/h 94% 0.0 mm 0 W/m2
23:01 12.3 °C 11.4 °C 1020.3 hPa WSW 1.4 km/h 11.3 km/h 94% 0.0 mm 0 W/m2
23:06 12.3 °C 11.4 °C 1020.3 hPa WSW 1.4 km/h 12.9 km/h 94% 0.0 mm 0 W/m2
23:11 12.4 °C 11.5 °C 1020.3 hPa NNW 6.4 km/h 8 km/h 94% 0.0 mm 0 W/m2
23:16 12.4 °C 11.3 °C 1020.3 hPa WNW 6.4 km/h 14.5 km/h 93% 0.0 mm 0 W/m2
23:21 12.5 °C 11.4 °C 1020.3 hPa Calm   3.2 km/h 93% 0.0 mm 0 W/m2
23:26 12.5 °C 11.4 °C 1020.3 hPa West 1.4 km/h 11.3 km/h 93% 0.0 mm 0 W/m2
23:31 12.5 °C 11.4 °C 1020.3 hPa WSW 4.7 km/h 6.4 km/h 93% 0.0 mm 0 W/m2
23:36 12.6 °C 11.7 °C 1020.3 hPa NNW 1.4 km/h 8 km/h 94% 0.0 mm 0 W/m2
23:41 12.6 °C 11.5 °C 1020.0 hPa West 1.4 km/h 8 km/h 93% 0.0 mm 0 W/m2
23:46 12.7 °C 11.6 °C 1020.3 hPa East 1.4 km/h 12.9 km/h 93% 0.0 mm 0 W/m2
23:51 12.7 °C 11.6 °C 1020.3 hPa NE 3.2 km/h 6.4 km/h 93% 0.0 mm 0 W/m2
23:56 12.7 °C 11.6 °C 1020.3 hPa WNW 1.4 km/h 6.4 km/h 93% 0.0 mm 0 W/m2
Juneau County Weather
Compliments of Weather Underground - 4 mb